Terminal Aerodrome Forecast
Issued by NWS

Home | Current Version | Previous Version | Text Only | Print | Product List | Glossary On
Versions: 1 2 3 4 5 6 7 8 9 10 11 12
000
FTUS44 KLIX 261138
TAFGPT
TAF
KGPT 261138Z 2612/2712 26005KT P6SM VCSH FEW050 SCT090
     FM261300 27011G20KT P6SM VCSH OVC020
     FM261500 28011KT P6SM VCSH OVC035
     FM261600 29011KT P6SM BKN060
     FM270300 32007KT P6SM FEW250=

USA.gov is the U.S. government's official web portal to all federal, state and local government web resources and services.